Terminal Aerodrome Forecast
Issued by NWS Quad Cities IA IL

Home | Current Version | Previous Version | Text Only | Print | Product List | Glossary On
Versions: 1 2 3 4 5 6 7 8 9 10 11 12 13 14 15 16 17 18 19 20 21 22 23 24 25 26
449
FTUS43 KDVN 241541 AAA
TAFDBQ
TAF AMD
KDBQ 241541Z 2416/2512 25011KT P6SM BKN015
     FM241900 27010KT P6SM SCT025
     FM242100 29010KT P6SM SKC
     FM250000 32005KT P6SM SCT250=

USA.gov is the U.S. government's official web portal to all federal, state and local government web resources and services.